createdAt,value
2022-10-28T00:01:37.343Z,17.38
2022-10-28T00:04:06.640Z,21.33
2022-10-28T00:06:37.291Z,19.40
2022-10-28T00:09:09.803Z,17.90
2022-10-28T00:11:41.114Z,20.50
2022-10-28T00:14:11.321Z,17.42
2022-10-28T00:16:41.156Z,14.52
2022-10-28T00:19:12.520Z,16.67
2022-10-28T00:21:43.796Z,16.98
2022-10-28T00:26:45.167Z,17.40
2022-10-28T00:29:16.330Z,18.27
2022-10-28T00:31:45.997Z,19.05
2022-10-28T00:34:17.758Z,16.73
2022-10-28T00:36:48.015Z,17.60
2022-10-28T00:39:20.234Z,19.13
2022-10-28T00:41:53.752Z,17.38
2022-10-28T00:44:57.046Z,16.17
2022-10-28T00:47:45.587Z,18.50
2022-10-28T00:50:21.893Z,15.00
2022-10-28T00:52:53.906Z,17.83
2022-10-28T00:55:26.292Z,16.42
2022-10-28T00:57:56.929Z,20.00
2022-10-28T01:00:26.927Z,18.95
2022-10-28T01:02:58.208Z,19.67
2022-10-28T01:05:30.164Z,17.95
2022-10-28T01:08:03.459Z,18.20
2022-10-28T01:10:49.606Z,20.48
2022-10-28T01:13:30.754Z,16.45
2022-10-28T01:16:06.568Z,18.33
2022-10-28T01:18:44.037Z,15.75
2022-10-28T01:21:40.899Z,17.13
2022-10-28T01:24:31.843Z,19.73
2022-10-28T01:27:33.723Z,18.75
2022-10-28T01:30:11.335Z,18.75
2022-10-28T01:32:53.987Z,16.17
2022-10-28T01:38:19.279Z,14.88
2022-10-28T01:40:58.778Z,17.50
2022-10-28T01:43:32.347Z,16.40
2022-10-28T01:46:06.188Z,17.35
2022-10-28T01:48:41.649Z,15.93
2022-10-28T01:51:15.380Z,16.80
2022-10-28T01:53:48.805Z,17.23
2022-10-28T01:56:22.880Z,15.68
2022-10-28T01:58:53.927Z,15.52
2022-10-28T02:01:24.995Z,20.38
2022-10-28T02:03:56.851Z,16.80
2022-10-28T02:06:28.755Z,16.70
2022-10-28T02:09:15.836Z,17.30
2022-10-28T02:12:06.203Z,18.52
2022-10-28T02:14:50.043Z,17.92
2022-10-28T02:17:25.701Z,17.73
2022-10-28T02:20:02.852Z,16.20
2022-10-28T02:22:42.338Z,19.98
2022-10-28T02:25:17.243Z,15.55
2022-10-28T02:27:52.556Z,15.88
2022-10-28T02:30:25.328Z,14.63
2022-10-28T02:32:59.344Z,18.02
2022-10-28T02:35:33.783Z,23.67
2022-10-28T02:38:13.324Z,17.30
2022-10-28T02:40:47.732Z,17.23
2022-10-28T02:43:19.324Z,18.83
2022-10-28T02:45:53.105Z,19.45
2022-10-28T02:48:29.151Z,15.80
2022-10-28T02:51:08.715Z,13.88
2022-10-28T02:53:49.238Z,13.63
2022-10-28T02:56:21.208Z,14.25
2022-10-28T02:58:50.607Z,14.82
2022-10-28T03:01:20.216Z,15.60
2022-10-28T03:03:48.994Z,14.80
2022-10-28T03:06:19.090Z,14.95
2022-10-28T03:08:47.633Z,15.32
2022-10-28T03:11:16.739Z,13.30
2022-10-28T03:13:45.300Z,13.85
2022-10-28T03:16:14.120Z,14.73
2022-10-28T03:18:42.668Z,14.82
2022-10-28T03:21:11.101Z,17.33
2022-10-28T03:23:41.189Z,16.42
2022-10-28T03:26:12.651Z,14.23
2022-10-28T03:28:41.777Z,14.20
2022-10-28T03:31:10.888Z,13.55
2022-10-28T03:33:39.640Z,16.35
2022-10-28T03:36:08.913Z,17.50
2022-10-28T03:38:37.735Z,18.40
2022-10-28T03:41:08.121Z,17.38
2022-10-28T03:43:36.741Z,14.77
2022-10-28T03:46:05.351Z,14.60
2022-10-28T03:48:33.855Z,13.88
2022-10-28T03:51:02.527Z,15.48
2022-10-28T03:53:31.547Z,15.65
2022-10-28T03:56:01.850Z,15.98
2022-10-28T03:58:33.499Z,16.13
2022-10-28T04:01:04.865Z,18.52
2022-10-28T04:03:35.123Z,14.25
2022-10-28T04:06:03.781Z,17.50
2022-10-28T04:08:32.350Z,15.05
2022-10-28T04:11:01.025Z,17.00
2022-10-28T04:13:29.570Z,15.32
2022-10-28T04:16:00.068Z,16.52
2022-10-28T04:18:28.636Z,11.75
2022-10-28T04:20:57.577Z,13.90
2022-10-28T04:23:26.294Z,13.55
2022-10-28T04:25:55.659Z,17.67
2022-10-28T04:28:25.556Z,12.45
2022-10-28T04:30:54.545Z,14.95
2022-10-28T04:33:24.903Z,13.02
2022-10-28T04:35:53.621Z,13.77
2022-10-28T04:38:22.606Z,15.60
2022-10-28T04:40:51.785Z,16.02
2022-10-28T04:43:20.487Z,15.35
2022-10-28T04:45:49.549Z,13.95
2022-10-28T04:48:18.136Z,17.88
2022-10-28T04:50:48.416Z,14.35
2022-10-28T04:53:17.217Z,14.95
2022-10-28T04:55:45.801Z,15.18
2022-10-28T04:58:15.010Z,15.82
2022-10-28T05:00:43.688Z,16.77
2022-10-28T05:03:12.444Z,15.80
2022-10-28T05:05:41.087Z,16.98
2022-10-28T05:08:11.268Z,16.52
2022-10-28T05:10:40.103Z,16.65
2022-10-28T05:13:08.715Z,16.67
2022-10-28T05:15:37.534Z,14.88
2022-10-28T05:18:06.081Z,17.35
2022-10-28T05:20:34.850Z,17.15
2022-10-28T05:23:04.842Z,19.48
2022-10-28T05:25:35.523Z,19.27
2022-10-28T05:28:04.911Z,17.88
2022-10-28T05:30:33.902Z,16.90
2022-10-28T05:33:03.640Z,17.63
2022-10-28T05:35:32.858Z,17.70
2022-10-28T05:38:04.697Z,14.85
2022-10-28T05:40:35.612Z,17.95
2022-10-28T05:43:05.176Z,17.10
2022-10-28T05:45:34.101Z,15.25
2022-10-28T05:48:03.276Z,15.15
2022-10-28T05:50:32.450Z,19.80
2022-10-28T05:53:03.479Z,23.90
2022-10-28T05:55:32.704Z,17.63
2022-10-28T05:58:03.446Z,16.77
2022-10-28T06:00:32.558Z,20.80
2022-10-28T06:03:09.603Z,25.50
2022-10-28T06:05:39.633Z,21.42
2022-10-28T06:08:12.389Z,16.40
2022-10-28T06:10:43.580Z,21.83
2022-10-28T06:13:12.379Z,18.13
2022-10-28T06:15:41.524Z,19.98
2022-10-28T06:18:14.323Z,20.98
2022-10-28T06:20:53.614Z,18.08
2022-10-28T06:23:24.695Z,19.15
2022-10-28T06:28:33.139Z,18.77
2022-10-28T06:31:02.922Z,20.45
2022-10-28T06:33:31.910Z,21.08
2022-10-28T06:36:03.965Z,19.10
2022-10-28T06:41:01.466Z,19.20
2022-10-28T06:43:32.832Z,24.45
2022-10-28T06:46:02.472Z,20.38
2022-10-28T06:48:33.501Z,25.08
2022-10-28T06:51:02.843Z,23.17
2022-10-28T06:53:32.499Z,21.42
2022-10-28T06:56:02.999Z,21.48
2022-10-28T06:58:31.905Z,21.42
2022-10-28T07:01:15.513Z,18.73
2022-10-28T07:03:49.581Z,21.90
2022-10-28T07:06:19.112Z,27.83
2022-10-28T07:08:49.325Z,20.38
2022-10-28T07:11:19.465Z,29.85
2022-10-28T07:13:49.010Z,26.38
2022-10-28T07:16:19.614Z,21.02
2022-10-28T07:18:48.435Z,23.50
2022-10-28T07:21:18.588Z,26.08
2022-10-28T07:23:50.458Z,29.55
2022-10-28T07:26:19.508Z,23.88
2022-10-28T07:28:48.609Z,30.73
2022-10-28T07:31:19.296Z,27.80
2022-10-28T07:33:53.693Z,28.13
2022-10-28T07:36:22.873Z,27.38
2022-10-28T07:38:53.697Z,28.75
2022-10-28T07:41:23.492Z,28.33
2022-10-28T07:43:55.483Z,29.27
2022-10-28T07:46:26.284Z,28.48
2022-10-28T07:48:54.883Z,33.60
2022-10-28T07:51:24.589Z,28.13
2022-10-28T07:53:53.800Z,28.55
2022-10-28T07:56:25.695Z,33.88
2022-10-28T07:58:54.805Z,29.88
2022-10-28T08:01:24.040Z,27.10
2022-10-28T08:03:56.856Z,30.92
2022-10-28T08:06:26.072Z,27.08
2022-10-28T08:08:56.712Z,27.95
2022-10-28T08:11:26.392Z,26.83
2022-10-28T08:13:56.576Z,32.00
2022-10-28T08:16:25.533Z,26.90
2022-10-28T08:18:56.870Z,23.67
2022-10-28T08:21:28.710Z,25.88
2022-10-28T08:24:00.836Z,25.33
2022-10-28T08:28:58.462Z,22.73
2022-10-28T08:31:27.565Z,24.63
2022-10-28T08:33:57.807Z,26.02
2022-10-28T08:36:29.770Z,26.55
2022-10-28T08:38:59.730Z,22.27
2022-10-28T08:41:36.357Z,24.20
2022-10-28T08:44:39.803Z,18.67
2022-10-28T08:47:19.444Z,19.98
2022-10-28T08:49:54.391Z,20.88
2022-10-28T08:52:34.551Z,21.50
2022-10-28T08:55:07.801Z,18.05
2022-10-28T08:57:41.547Z,18.40
2022-10-28T09:00:23.030Z,19.67
2022-10-28T09:03:17.808Z,16.40
2022-10-28T09:05:51.467Z,20.80
2022-10-28T09:11:44.702Z,19.45
2022-10-28T09:14:30.414Z,20.55
2022-10-28T09:20:02.404Z,19.58
2022-10-28T09:25:39.185Z,17.40
2022-10-28T09:28:26.212Z,17.10
2022-10-28T09:34:13.333Z,14.93
2022-10-28T09:36:46.582Z,19.63
2022-10-28T09:39:25.326Z,14.38
2022-10-28T09:44:50.794Z,14.32
2022-10-28T09:47:24.499Z,14.27
2022-10-28T09:52:56.879Z,12.30
2022-10-28T09:55:27.722Z,10.85
2022-10-28T10:03:30.402Z,9.68
2022-10-28T10:06:04.271Z,13.68
2022-10-28T10:14:21.460Z,10.80
2022-10-28T10:16:56.194Z,10.90
2022-10-28T10:19:25.208Z,8.63
2022-10-28T10:24:47.609Z,9.73
2022-10-28T10:27:23.537Z,9.57
2022-10-28T10:29:56.564Z,8.85
2022-10-28T10:32:28.968Z,10.25
2022-10-28T10:35:02.320Z,10.48
2022-10-28T10:37:35.511Z,11.15
2022-10-28T10:40:19.697Z,11.50
2022-10-28T10:43:03.486Z,10.80
2022-10-28T10:45:39.988Z,9.45
2022-10-28T10:51:10.361Z,10.75
2022-10-28T10:53:43.583Z,12.32
2022-10-28T10:59:22.256Z,8.82
2022-10-28T11:01:56.118Z,9.35
2022-10-28T11:04:28.009Z,10.40
2022-10-28T11:06:58.605Z,10.85
2022-10-28T11:09:32.942Z,9.93
2022-10-28T11:15:00.735Z,13.13
2022-10-28T11:17:34.714Z,9.13
2022-10-28T11:20:25.593Z,12.00
2022-10-28T11:23:05.462Z,7.97
2022-10-28T11:25:38.580Z,11.07
2022-10-28T11:31:29.355Z,8.38
2022-10-28T11:34:15.640Z,8.80
2022-10-28T11:36:59.007Z,7.88
2022-10-28T11:39:37.057Z,7.30
2022-10-28T11:42:21.634Z,8.35
2022-10-28T11:48:05.793Z,9.93
2022-10-28T11:53:57.501Z,7.90
2022-10-28T11:56:35.703Z,8.10
2022-10-28T12:02:34.404Z,9.90
2022-10-28T12:05:10.741Z,7.68
2022-10-28T12:08:03.382Z,9.20
2022-10-28T12:10:47.191Z,8.10
2022-10-28T12:13:21.990Z,8.02
2022-10-28T12:15:56.677Z,8.45
2022-10-28T12:21:43.832Z,4.53
2022-10-28T12:27:15.281Z,9.00
2022-10-28T12:41:19.742Z,6.85
2022-10-28T12:52:41.257Z,7.65
2022-10-28T12:55:22.407Z,9.82
2022-10-28T13:00:50.571Z,7.07
2022-10-28T13:03:19.964Z,8.75
2022-10-28T13:09:18.964Z,6.95
2022-10-28T13:12:23.898Z,6.03
2022-10-28T13:15:18.010Z,11.35
2022-10-28T13:18:02.344Z,8.75
2022-10-28T13:20:48.741Z,7.35
2022-10-28T13:26:24.634Z,7.15
2022-10-28T13:37:33.636Z,6.45
2022-10-28T13:42:50.410Z,4.60
2022-10-28T13:45:55.401Z,6.00
2022-10-28T13:51:47.802Z,5.28
2022-10-28T13:54:28.331Z,9.48
2022-10-28T13:57:05.286Z,7.63
2022-10-28T13:59:49.137Z,7.65
2022-10-28T14:02:40.458Z,8.00
2022-10-28T14:08:00.841Z,5.65
2022-10-28T14:10:31.603Z,6.30
2022-10-28T14:13:03.476Z,6.57
2022-10-28T14:15:35.205Z,6.85
2022-10-28T14:21:16.574Z,9.60
2022-10-28T14:24:10.603Z,6.72
2022-10-28T14:27:32.262Z,6.18
2022-10-28T14:33:04.757Z,4.18
2022-10-28T14:35:44.870Z,6.88
2022-10-28T14:38:42.398Z,6.50
2022-10-28T14:41:38.030Z,7.60
2022-10-28T14:44:20.378Z,5.97
2022-10-28T14:47:11.969Z,6.25
2022-10-28T14:49:43.757Z,7.85
2022-10-28T14:55:08.398Z,6.88
2022-10-28T14:57:37.729Z,7.70
2022-10-28T15:00:09.373Z,8.35
2022-10-28T15:02:39.651Z,8.32
2022-10-28T15:05:18.328Z,6.07
2022-10-28T15:07:50.409Z,8.32
2022-10-28T15:10:23.881Z,7.75
2022-10-28T15:12:55.423Z,9.85
2022-10-28T15:17:55.883Z,6.65
2022-10-28T15:20:27.346Z,9.40
2022-10-28T15:23:14.843Z,8.33
2022-10-28T15:25:44.058Z,10.35
2022-10-28T15:33:46.568Z,9.55
2022-10-28T15:39:10.383Z,8.50
2022-10-28T15:41:44.033Z,10.13
2022-10-28T15:44:32.042Z,10.07
2022-10-28T15:47:01.946Z,9.05
2022-10-28T15:49:35.362Z,10.50
2022-10-28T15:52:22.501Z,9.23
2022-10-28T15:55:00.466Z,13.35
2022-10-28T15:57:32.730Z,9.13
2022-10-28T16:00:22.572Z,16.23
2022-10-28T16:02:56.761Z,23.02
2022-10-28T16:05:46.334Z,21.40
2022-10-28T16:08:24.843Z,20.77
2022-10-28T16:10:57.806Z,22.52
2022-10-28T16:13:30.865Z,21.17
2022-10-28T16:16:03.642Z,19.52
2022-10-28T16:18:36.528Z,19.52
2022-10-28T16:21:06.172Z,16.45
2022-10-28T16:26:28.751Z,22.67
2022-10-28T16:28:57.661Z,20.85
2022-10-28T16:34:17.159Z,22.52
2022-10-28T16:36:46.122Z,24.02
2022-10-28T16:39:15.114Z,21.33
2022-10-28T16:41:45.606Z,18.17
2022-10-28T16:44:22.374Z,18.73
2022-10-28T16:52:25.413Z,25.45
2022-10-28T16:54:55.631Z,29.42
2022-10-28T16:57:26.649Z,23.63
2022-10-28T16:59:55.930Z,28.65
2022-10-28T17:02:29.136Z,30.80
2022-10-28T17:04:59.345Z,37.28
2022-10-28T17:10:17.840Z,34.85
2022-10-28T17:15:33.885Z,28.23
2022-10-28T17:20:48.921Z,26.92
2022-10-28T17:23:18.357Z,27.00
2022-10-28T17:25:57.480Z,29.70
2022-10-28T17:28:27.727Z,28.98
2022-10-28T17:36:41.788Z,25.87
2022-10-28T17:39:16.456Z,29.58
2022-10-28T17:41:46.869Z,24.27
2022-10-28T17:44:17.616Z,27.42
2022-10-28T17:52:20.578Z,29.25
2022-10-28T17:54:49.492Z,27.65
2022-10-28T17:57:18.188Z,27.05
2022-10-28T17:59:50.208Z,23.15
2022-10-28T18:07:34.089Z,27.65
2022-10-28T18:10:02.898Z,28.10
2022-10-28T18:12:32.504Z,25.67
2022-10-28T18:17:50.828Z,26.63
2022-10-28T18:20:19.658Z,25.83
2022-10-28T18:22:48.510Z,27.13
2022-10-28T18:25:17.663Z,33.38
2022-10-28T18:27:46.605Z,33.22
2022-10-28T18:30:19.670Z,38.33
2022-10-28T18:35:36.092Z,31.35
2022-10-28T18:38:05.036Z,28.63
2022-10-28T18:40:33.903Z,33.15
2022-10-28T18:43:03.136Z,28.90
2022-10-28T18:45:36.067Z,30.40
2022-10-28T18:48:06.586Z,30.33
2022-10-28T18:50:35.406Z,29.25
2022-10-28T18:55:52.387Z,31.00
2022-10-28T19:01:11.688Z,29.60
2022-10-28T19:03:41.359Z,29.58
2022-10-28T19:06:12.320Z,32.70
2022-10-28T19:08:42.440Z,27.45
2022-10-28T19:11:13.842Z,27.27
2022-10-28T19:13:44.332Z,32.17
2022-10-28T19:19:02.695Z,32.97
2022-10-28T19:21:31.590Z,36.65
2022-10-28T19:26:47.648Z,36.85
2022-10-28T19:29:16.721Z,28.77
2022-10-28T19:31:47.510Z,33.78
2022-10-28T19:34:21.048Z,31.95
2022-10-28T19:36:49.956Z,31.17
2022-10-28T19:39:18.619Z,32.67
2022-10-28T19:41:50.903Z,33.20
2022-10-28T19:47:08.308Z,29.67
2022-10-28T19:49:43.447Z,33.03
2022-10-28T19:54:59.472Z,33.00
2022-10-28T19:57:28.215Z,30.63
2022-10-28T19:59:57.454Z,26.83
2022-10-28T20:02:28.646Z,32.08
2022-10-28T20:04:57.516Z,25.03
2022-10-28T20:07:26.479Z,25.08
2022-10-28T20:09:55.962Z,28.05
2022-10-28T20:12:24.944Z,30.30
2022-10-28T20:14:53.732Z,27.33
2022-10-28T20:17:22.727Z,26.23
2022-10-28T20:19:52.913Z,29.05
2022-10-28T20:22:21.879Z,23.67
2022-10-28T20:24:50.819Z,25.95
2022-10-28T20:27:19.588Z,23.88
2022-10-28T20:29:48.531Z,24.83
2022-10-28T20:32:17.491Z,26.23
2022-10-28T20:34:46.222Z,24.73
2022-10-28T20:40:06.371Z,23.13
2022-10-28T20:42:36.510Z,26.88
2022-10-28T20:45:05.716Z,22.92
2022-10-28T20:47:34.497Z,28.15
2022-10-28T20:55:38.276Z,26.25
2022-10-28T20:58:07.415Z,25.77
2022-10-28T21:00:36.301Z,27.13
2022-10-28T21:03:05.325Z,21.95
2022-10-28T21:08:22.521Z,22.13
2022-10-28T21:10:51.346Z,22.35
2022-10-28T21:13:20.297Z,19.17
2022-10-28T21:15:54.573Z,23.67
2022-10-28T21:21:13.346Z,24.10
2022-10-28T21:23:43.508Z,23.35
2022-10-28T21:26:14.867Z,28.52
2022-10-28T21:28:43.693Z,27.25
2022-10-28T21:34:04.475Z,20.33
2022-10-28T21:36:36.484Z,20.30
2022-10-28T21:39:06.761Z,25.13
2022-10-28T21:41:35.501Z,23.90
2022-10-28T21:44:06.899Z,32.10
2022-10-28T21:49:21.891Z,20.85
2022-10-28T21:51:50.812Z,23.25
2022-10-28T21:54:21.126Z,24.08
2022-10-28T21:56:51.003Z,22.75
2022-10-28T21:59:19.672Z,18.63
2022-10-28T22:04:34.807Z,18.83
2022-10-28T22:07:03.717Z,22.42
2022-10-28T22:12:09.588Z,20.88
2022-10-28T22:14:39.112Z,18.42
2022-10-28T22:17:08.116Z,19.45
2022-10-28T22:19:36.662Z,18.15
2022-10-28T22:24:54.153Z,18.17
2022-10-28T22:27:23.417Z,18.60
2022-10-28T22:29:52.301Z,15.73
2022-10-28T22:32:20.849Z,16.35
2022-10-28T22:34:50.243Z,17.50
2022-10-28T22:37:19.128Z,16.90
2022-10-28T22:39:47.678Z,15.55
2022-10-28T22:45:05.596Z,14.45
2022-10-28T22:47:37.315Z,18.85
2022-10-28T22:50:06.918Z,17.63
2022-10-28T22:55:21.392Z,16.33
2022-10-28T22:57:54.452Z,18.05
2022-10-28T23:03:09.868Z,15.15
2022-10-28T23:05:38.998Z,15.60
2022-10-28T23:10:54.329Z,13.77
2022-10-28T23:16:12.408Z,17.25
2022-10-28T23:24:14.285Z,13.57
2022-10-28T23:26:43.887Z,16.23
2022-10-28T23:29:14.301Z,13.55
2022-10-28T23:31:43.076Z,16.13
2022-10-28T23:34:12.671Z,16.73
2022-10-28T23:39:27.859Z,15.70
2022-10-28T23:41:56.734Z,16.67
2022-10-28T23:47:16.440Z,16.30
2022-10-28T23:49:45.461Z,18.38
2022-10-28T23:52:14.397Z,15.98
2022-10-28T23:57:31.622Z,16.83
